Time;durP1;ratioP1;P1;durP2;ratioP2;P2;SDS_P1;SDS_P2;PMS_P1;PMS_P2;Temp;Humidity;BMP_temperature;BMP_pressure;BME280_temperature;BME280_humidity;BME280_pressure;Samples;Min_cycle;Max_cycle;Signal;HPM_P1;HPM_P2
2023/07/24 00:01:52;;;;;;;0.52;0.35;;;;;;;24.22;60.51;99433.53;4310158;33;20131;-96
2023/07/24 00:04:20;;;;;;;0.00;0.00;;;;;;;24.17;60.49;99429.50;4311173;33;20088;-96
2023/07/24 00:06:46;;;;;;;0.00;0.00;;;;;;;24.29;60.50;99432.00;4328253;33;20082;-95
2023/07/24 00:09:12;;;;;;;0.90;0.80;;;;;;;24.13;60.50;99432.56;4326993;33;20138;-94
2023/07/24 00:11:38;;;;;;;0.00;0.00;;;;;;;24.08;60.50;99432.16;4312343;33;20128;-96
2023/07/24 00:14:04;;;;;;;0.03;0.03;;;;;;;24.00;60.49;99422.25;4300923;33;20079;-96
2023/07/24 00:16:30;;;;;;;0.57;0.57;;;;;;;24.05;60.49;99419.97;4324612;33;20119;-95
2023/07/24 00:18:56;;;;;;;0.05;0.05;;;;;;;23.99;60.49;99428.53;4302799;33;20104;-96
2023/07/24 00:21:21;;;;;;;0.52;0.52;;;;;;;23.94;60.48;99422.81;4312303;33;20158;-96
2023/07/24 00:23:50;;;;;;;0.05;0.05;;;;;;;23.91;60.48;99422.25;4324524;33;20182;-95
2023/07/24 00:26:16;;;;;;;0.22;0.22;;;;;;;23.88;60.49;99416.22;4330367;33;20064;-96
2023/07/24 00:28:41;;;;;;;0.20;0.20;;;;;;;23.87;60.48;99411.88;4303965;33;20217;-96
2023/07/24 00:31:07;;;;;;;0.00;0.00;;;;;;;23.96;60.48;99420.00;4317474;33;20140;-96
2023/07/24 00:33:32;;;;;;;1.50;0.68;;;;;;;23.97;60.48;99419.03;4311348;33;20133;-96
2023/07/24 00:35:58;;;;;;;0.00;0.00;;;;;;;23.95;60.48;99410.38;4312763;33;20091;-96
2023/07/24 00:38:23;;;;;;;0.40;0.40;;;;;;;23.95;60.48;99405.87;4300176;33;20125;-96
2023/07/24 00:40:50;;;;;;;0.20;0.15;;;;;;;23.88;60.47;99402.94;4298359;33;20119;-95
2023/07/24 00:43:15;;;;;;;2.33;0.17;;;;;;;23.98;60.49;99405.59;4324298;33;20087;-96
2023/07/24 00:45:41;;;;;;;0.80;0.62;;;;;;;23.91;60.48;99406.31;4310128;33;20457;-96
2023/07/24 00:48:06;;;;;;;0.85;0.85;;;;;;;23.87;60.47;99395.94;4296601;33;20156;-96
2023/07/24 00:50:32;;;;;;;0.05;0.05;;;;;;;23.70;60.47;99398.50;4318748;33;20111;-96
2023/07/24 00:52:57;;;;;;;0.52;0.30;;;;;;;23.69;60.46;99394.16;4298182;33;20366;-96
2023/07/24 00:55:23;;;;;;;3.22;0.93;;;;;;;23.68;60.47;99392.50;4308398;33;20127;-96
2023/07/24 00:57:48;;;;;;;0.10;0.10;;;;;;;23.76;60.47;99395.28;4319078;33;20123;-96
2023/07/24 01:00:14;;;;;;;0.22;0.05;;;;;;;23.76;60.48;99393.44;4319366;33;20112;-95
2023/07/24 01:02:39;;;;;;;0.30;0.30;;;;;;;23.74;60.46;99386.59;4321726;33;20104;-96
2023/07/24 01:05:05;;;;;;;0.08;0.08;;;;;;;23.80;60.47;99386.03;4313440;33;20381;-96
2023/07/24 01:07:30;;;;;;;4.20;0.65;;;;;;;23.81;60.48;99393.84;4314233;33;20120;-96
2023/07/24 01:10:00;;;;;;;0.73;0.73;;;;;;;23.63;60.47;99390.22;4319492;33;20099;-95
2023/07/24 01:12:35;;;;;;;0.10;0.10;;;;;;;23.64;60.46;99386.59;4311351;33;20064;-96
2023/07/24 01:15:28;;;;;;;0.40;0.30;;;;;;;23.72;60.46;99393.88;4323067;33;20150;-95
2023/07/24 01:18:00;;;;;;;0.17;0.17;;;;;;;23.66;60.46;99391.75;4315364;33;20727;-96
2023/07/24 01:20:26;;;;;;;0.00;0.00;;;;;;;23.70;60.47;99398.50;4301057;33;20078;-96
2023/07/24 01:23:04;;;;;;;0.00;0.00;;;;;;;23.62;60.46;99393.03;4321549;33;20167;-96
2023/07/24 01:25:37;;;;;;;0.75;0.30;;;;;;;23.60;60.46;99387.84;4324613;33;20830;-96
2023/07/24 01:28:07;;;;;;;0.00;0.00;;;;;;;23.62;60.46;99385.06;4301260;33;20123;-96
2023/07/24 01:30:32;;;;;;;0.70;0.43;;;;;;;23.58;60.46;99388.00;4300862;33;20134;-96
2023/07/24 01:32:58;;;;;;;0.35;0.35;;;;;;;23.61;60.46;99388.69;4315027;33;20121;-95
2023/07/24 01:35:23;;;;;;;0.20;0.20;;;;;;;23.56;60.46;99382.00;4324620;33;20409;-96
2023/07/24 01:37:49;;;;;;;0.10;0.10;;;;;;;23.49;60.45;99380.00;4319570;33;20108;-96
2023/07/24 01:40:15;;;;;;;1.55;1.08;;;;;;;23.51;60.46;99381.53;4313010;33;20119;-96
2023/07/24 01:42:41;;;;;;;0.03;0.03;;;;;;;23.43;60.46;99381.41;4300646;33;20134;-96
2023/07/24 01:45:07;;;;;;;0.00;0.00;;;;;;;23.40;60.45;99381.66;4312590;33;20216;-96
2023/07/24 01:47:33;;;;;;;0.35;0.35;;;;;;;23.40;60.45;99378.19;4319187;33;20183;-96
2023/07/24 01:49:58;;;;;;;0.40;0.40;;;;;;;23.46;60.46;99383.78;4310611;33;20100;-96
2023/07/24 01:52:25;;;;;;;0.20;0.17;;;;;;;23.37;60.45;99376.63;4312761;33;20148;-96
2023/07/24 01:54:50;;;;;;;1.65;0.22;;;;;;;23.27;60.45;99378.47;4313454;33;20124;-96
2023/07/24 01:57:17;;;;;;;0.13;0.13;;;;;;;23.30;60.45;99375.53;4302633;33;20174;-96
2023/07/24 01:59:48;;;;;;;0.65;0.65;;;;;;;23.27;60.45;99381.13;4317456;33;20123;-96
2023/07/24 02:02:26;;;;;;;0.00;0.00;;;;;;;23.20;60.44;99374.69;4333838;33;20167;-96
2023/07/24 02:04:54;;;;;;;0.28;0.28;;;;;;;23.19;60.44;99379.16;4319954;33;20082;-96
2023/07/24 02:07:29;;;;;;;6.32;1.15;;;;;;;23.15;60.43;99380.41;4328985;33;20096;-96
2023/07/24 02:09:55;;;;;;;1.95;0.50;;;;;;;23.09;60.43;99377.47;4328933;33;20119;-96
2023/07/24 02:12:21;;;;;;;0.65;0.65;;;;;;;23.20;60.44;99375.53;4320048;33;20091;-96
2023/07/24 02:14:49;;;;;;;0.25;0.25;;;;;;;23.13;60.43;99382.34;4299533;33;20107;-95
2023/07/24 02:17:15;;;;;;;0.00;0.00;;;;;;;23.06;60.44;99375.09;4301702;33;20130;-96
2023/07/24 02:19:41;;;;;;;0.30;0.10;;;;;;;23.03;60.43;99370.06;4310517;33;20116;-96
2023/07/24 02:22:07;;;;;;;0.17;0.17;;;;;;;22.94;60.42;99380.50;4315593;33;20122;-95
2023/07/24 02:24:43;;;;;;;3.90;0.60;;;;;;;22.92;60.42;99378.97;4318245;33;20089;-95
2023/07/24 02:27:11;;;;;;;0.13;0.13;;;;;;;;;;4348659;33;20130;-96
2023/07/24 02:29:37;;;;;;;1.50;0.43;;;;;;;23.11;60.43;99373.69;4340818;33;20789;-96
2023/07/24 02:32:04;;;;;;;0.28;0.28;;;;;;;23.00;60.42;99373.81;4302323;33;20124;-96
2023/07/24 02:34:29;;;;;;;0.20;0.20;;;;;;;22.87;60.41;99368.75;4337628;33;20103;-96
2023/07/24 02:36:55;;;;;;;0.10;0.10;;;;;;;22.92;60.42;99371.84;4326748;33;20099;-96
2023/07/24 02:41:56;;;;;;;0.00;0.00;;;;;;;22.94;60.42;99382.31;4374664;27;20116;-96
2023/07/24 02:44:21;;;;;;;0.47;0.45;;;;;;;22.85;60.42;99383.13;4301874;33;20195;-95
2023/07/24 02:46:46;;;;;;;0.20;0.20;;;;;;;22.80;60.42;99378.22;4300249;33;20149;-95
2023/07/24 02:54:22;;;;;;;0.30;0.20;;;;;;;22.64;60.40;99388.50;4948819;27;20063;-95
2023/07/24 02:57:32;;;;;;;0.00;0.00;;;;;;;22.60;60.41;99387.91;4333423;33;20074;-96
2023/07/24 03:10:27;;;;;;;1.60;0.75;;;;;;;22.32;60.38;99378.03;4497347;27;20232;-96
2023/07/24 03:13:31;;;;;;;0.10;0.10;;;;;;;22.33;60.40;99375.25;4334381;33;20067;-96
2023/07/24 03:17:08;;;;;;;1.55;1.15;;;;;;;22.54;60.40;99377.84;4347226;32;20064;-96
2023/07/24 03:19:44;;;;;;;1.75;0.70;;;;;;;22.35;60.40;99368.00;4348050;33;20130;-96
2023/07/24 03:22:29;;;;;;;0.50;0.50;;;;;;;22.32;60.39;99364.78;4323986;33;20083;-96
2023/07/24 03:25:11;;;;;;;0.15;0.15;;;;;;;22.22;60.39;99359.41;4348454;33;20092;-96
2023/07/24 03:27:51;;;;;;;0.13;0.13;;;;;;;22.28;60.40;99364.22;4348644;32;20048;-96
2023/07/24 03:30:59;;;;;;;3.20;0.75;;;;;;;22.42;60.40;99373.59;4334135;32;20119;-96
2023/07/24 03:34:01;;;;;;;0.27;0.20;;;;;;;22.32;60.39;99375.37;4311203;33;20292;-96
2023/07/24 04:02:50;;;;;;;0.17;0.03;;;;;;;22.04;60.38;99361.03;4611163;27;20084;-95
2023/07/24 04:05:15;;;;;;;0.17;0.17;;;;;;;22.34;60.39;99354.88;4302071;33;20107;-94
2023/07/24 04:12:51;;;;;;;0.47;0.47;;;;;;;22.69;60.41;99359.72;4399007;27;20150;-95
2023/07/24 04:15:46;;;;;;;0.28;0.28;;;;;;;22.80;60.42;99356.16;4334855;33;20126;-96
2023/07/24 04:18:11;;;;;;;1.55;0.88;;;;;;;22.91;60.42;99348.91;4330062;33;20115;-96
2023/07/24 04:20:37;;;;;;;0.03;0.00;;;;;;;22.94;60.42;99353.13;4317547;33;20087;-96
2023/07/24 04:23:02;;;;;;;0.40;0.40;;;;;;;23.27;60.44;99355.41;4325015;33;20096;-96
2023/07/24 04:25:28;;;;;;;0.00;0.00;;;;;;;23.34;60.44;99339.75;4330915;33;20142;-96
2023/07/24 04:27:53;;;;;;;0.50;0.45;;;;;;;23.22;60.44;99336.41;4325913;33;20143;-95
2023/07/24 04:30:25;;;;;;;6.18;1.55;;;;;;;23.18;60.43;99334.12;4331930;33;20051;-96
2023/07/24 04:32:54;;;;;;;0.45;0.20;;;;;;;23.14;60.43;99335.41;4331614;33;20091;-96
2023/07/24 04:35:25;;;;;;;0.00;0.00;;;;;;;23.49;60.45;99333.03;4352807;33;20170;-96
2023/07/24 04:37:51;;;;;;;;;;;;;;;23.75;60.47;99345.75;4330568;33;20094;-96
2023/07/24 04:40:16;;;;;;;0.30;0.28;;;;;;;23.77;60.46;99341.97;4338984;33;20000;-95
2023/07/24 04:42:42;;;;;;;0.43;0.43;;;;;;;23.79;60.46;99339.16;4313904;32;20087;-96
2023/07/24 04:45:08;;;;;;;4.45;0.82;;;;;;;23.65;60.45;99344.91;4326338;33;21088;-95
2023/07/24 04:47:46;;;;;;;0.37;0.37;;;;;;;23.74;60.46;99336.09;4328925;33;20080;-96
2023/07/24 04:50:11;;;;;;;0.62;0.45;;;;;;;23.81;60.47;99340.69;4466850;27;20091;-95
2023/07/24 04:52:37;;;;;;;0.00;0.00;;;;;;;24.18;60.48;99339.91;4332838;33;20865;-94
2023/07/24 04:55:05;;;;;;;0.10;0.10;;;;;;;24.42;60.49;99339.41;4331261;33;20075;-96
2023/07/24 04:58:01;;;;;;;0.32;0.32;;;;;;;24.27;60.49;99340.84;4334278;33;20095;-95
2023/07/24 05:00:29;;;;;;;0.93;0.80;;;;;;;24.20;60.48;99343.25;4329674;33;20118;-94
2023/07/24 05:02:54;;;;;;;0.28;0.28;;;;;;;23.87;60.47;99352.56;4325466;33;20114;-94
2023/07/24 05:13:20;;;;;;;;;;;;;;;;;;;;;
2023/07/24 05:16:26;;;;;;;;;;;;;;;;;;;;;
2023/07/24 05:19:06;;;;;;;;;;;;;;;;;;;;;
2023/07/24 05:22:05;;;;;;;;;;;;;;;;;;;;;
2023/07/24 05:25:09;;;;;;;;;;;;;;;;;;;;;
2023/07/24 05:28:06;;;;;;;;;;;;;;;;;;;;;
2023/07/24 05:31:04;;;;;;;;;;;;;;;;;;;;;
2023/07/24 05:34:10;;;;;;;;;;;;;;;;;;;;;
2023/07/24 05:43:55;;;;;;;0.75;0.45;;;;;;;25.62;60.57;99335.50;4312190;33;20095;-93
2023/07/24 05:46:56;;;;;;;;;;;;;;;;;;;;;
2023/07/24 05:53:41;;;;;;;0.30;0.28;;;;;;;26.16;60.58;99335.38;4323719;33;20095;-94
2023/07/24 05:56:38;;;;;;;0.28;0.28;;;;;;;26.28;60.59;99334.12;4313586;33;20108;-93
2023/07/24 05:59:26;;;;;;;0.32;0.32;;;;;;;26.40;60.59;99329.38;4309496;33;20133;-92
2023/07/24 06:02:09;;;;;;;0.62;0.62;;;;;;;26.54;60.60;99323.44;4309432;33;20402;-93
2023/07/24 06:04:48;;;;;;;;;;;;;;;;;;;;;
2023/07/24 06:07:16;;;;;;;1.70;0.55;;;;;;;26.77;60.61;99310.31;4306098;33;35440;-89
2023/07/24 06:09:42;;;;;;;0.43;0.43;;;;;;;26.87;60.63;99306.50;4293884;33;20111;-91
2023/07/24 06:12:07;;;;;;;0.10;0.10;;;;;;;27.10;60.63;99309.41;4308608;33;20185;-89
2023/07/24 06:14:43;;;;;;;0.73;0.30;;;;;;;27.29;60.65;99312.75;4308478;33;20100;-91
2023/07/24 06:17:14;;;;;;;0.20;0.20;;;;;;;27.10;60.62;99312.06;4298083;33;20108;-93
2023/07/24 06:19:39;;;;;;;0.85;0.20;;;;;;;27.20;60.63;99301.22;4321150;33;20166;-92
2023/07/24 06:22:05;;;;;;;0.30;0.30;;;;;;;27.30;60.64;99307.25;4309376;33;20139;-91
2023/07/24 06:24:30;;;;;;;0.00;0.00;;;;;;;27.45;60.65;99307.41;4308990;33;20118;-92
2023/07/24 06:26:56;;;;;;;0.47;0.45;;;;;;;27.67;60.65;99306.75;4309142;33;20096;-93
2023/07/24 06:29:25;;;;;;;1.20;0.68;;;;;;;27.73;60.67;99311.44;4335039;33;20118;-92
2023/07/24 06:31:51;;;;;;;1.85;1.05;;;;;;;27.89;60.67;99307.03;4321258;33;20479;-93
2023/07/24 06:34:23;;;;;;;0.60;0.40;;;;;;;27.91;60.66;99305.03;4309271;33;20102;-93
2023/07/24 06:36:49;;;;;;;0.43;0.43;;;;;;;28.02;60.68;99304.69;4310444;33;20122;-91
2023/07/24 06:39:15;;;;;;;2.62;0.77;;;;;;;28.22;60.69;99305.13;4309276;33;20141;-90
2023/07/24 06:41:40;;;;;;;1.65;0.85;;;;;;;28.24;60.70;99298.59;4334488;33;20122;-90
2023/07/24 06:44:06;;;;;;;2.30;0.80;;;;;;;28.49;60.71;99310.06;4333854;33;22254;-91
2023/07/24 06:46:31;;;;;;;0.90;0.52;;;;;;;28.54;60.71;99314.87;4320610;33;20104;-90
2023/07/24 06:48:57;;;;;;;1.17;0.62;;;;;;;28.60;60.71;99309.66;4320796;33;20095;-90
2023/07/24 06:51:22;;;;;;;1.05;1.05;;;;;;;28.86;60.71;99305.84;4320776;33;20521;-89
2023/07/24 06:53:48;;;;;;;0.85;0.85;;;;;;;29.01;60.72;99301.41;4321122;33;20134;-90
2023/07/24 06:56:14;;;;;;;0.65;0.60;;;;;;;29.20;60.74;99303.62;4308471;33;20234;-89
2023/07/24 06:58:39;;;;;;;0.85;0.75;;;;;;;29.48;60.74;99297.72;4334377;33;20100;-89
2023/07/24 07:01:07;;;;;;;0.95;0.90;;;;;;;29.69;60.76;99302.41;4320577;33;20465;-90
2023/07/24 07:03:36;;;;;;;0.75;0.68;;;;;;;29.85;60.77;99303.09;4296492;33;20155;-89
2023/07/24 07:06:02;;;;;;;1.37;0.62;;;;;;;29.88;60.77;99294.66;4299602;33;20102;-89
2023/07/24 07:08:28;;;;;;;0.10;0.03;;;;;;;30.25;60.79;99287.53;4319732;33;20138;-89
2023/07/24 07:10:57;;;;;;;0.37;0.37;;;;;;;30.16;60.79;99284.13;4335015;33;20477;-89
2023/07/24 07:13:22;;;;;;;0.50;0.50;;;;;;;30.25;60.79;99287.53;4307605;33;20131;-89
2023/07/24 07:15:48;;;;;;;0.45;0.45;;;;;;;30.36;60.79;99281.72;4320554;33;20107;-89
2023/07/24 07:18:13;;;;;;;1.45;0.77;;;;;;;30.48;60.81;99279.38;4308364;33;20112;-87
2023/07/24 07:20:39;;;;;;;0.30;0.30;;;;;;;30.68;60.81;99274.25;4320513;33;20159;-87
2023/07/24 07:23:04;;;;;;;0.57;0.40;;;;;;;30.68;60.81;99268.87;4333983;33;20138;-88
2023/07/24 07:25:29;;;;;;;0.57;0.57;;;;;;;30.69;60.80;99270.56;4320564;33;20128;-87
2023/07/24 07:27:55;;;;;;;0.60;0.60;;;;;;;30.82;60.82;99263.47;4308093;33;20540;-88
2023/07/24 07:30:20;;;;;;;0.10;0.10;;;;;;;30.91;60.82;99252.59;4333572;33;20192;-88
2023/07/24 07:32:48;;;;;;;0.60;0.55;;;;;;;31.01;60.83;99247.75;4330328;33;105025;-88
2023/07/24 07:35:13;;;;;;;0.95;0.37;;;;;;;31.24;60.84;99256.47;4320779;33;20111;-88
2023/07/24 07:37:39;;;;;;;2.60;0.90;;;;;;;31.47;60.85;99242.78;4320536;33;20125;-87
2023/07/24 07:40:06;;;;;;;0.75;0.35;;;;;;;31.36;60.84;99244.13;4320092;33;22434;-87
2023/07/24 07:42:31;;;;;;;0.57;0.57;;;;;;;31.45;60.84;99250.19;4308580;33;20099;-87
2023/07/24 07:44:56;;;;;;;1.35;0.75;;;;;;;31.49;60.86;99246.13;4320502;33;20167;-87
2023/07/24 07:47:22;;;;;;;0.35;0.35;;;;;;;31.41;60.84;99240.84;4319963;33;27283;-86
2023/07/24 07:49:47;;;;;;;14.05;1.05;;;;;;;31.57;60.85;99253.19;4307944;33;20091;-86
2023/07/24 07:52:16;;;;;;;0.93;0.88;;;;;;;31.58;60.86;99247.63;4320323;33;20087;-86
2023/07/24 07:54:46;;;;;;;3.33;1.55;;;;;;;31.74;60.87;99239.28;4333792;33;20096;-86
2023/07/24 07:57:11;;;;;;;0.20;0.05;;;;;;;31.98;60.88;99239.81;4320600;33;20104;-87
2023/07/24 07:59:36;;;;;;;0.00;0.00;;;;;;;32.21;60.89;99245.75;4307936;33;20490;-86
2023/07/24 08:02:02;;;;;;;0.20;0.20;;;;;;;32.17;60.89;99239.06;4332788;33;33723;-87
2023/07/24 08:04:27;;;;;;;0.20;0.20;;;;;;;32.21;60.90;99240.34;4320354;33;20111;-86
2023/07/24 08:06:53;;;;;;;0.40;0.30;;;;;;;32.15;60.89;99235.75;4319578;33;26051;-85
2023/07/24 08:09:18;;;;;;;0.65;0.65;;;;;;;32.50;60.90;99239.25;4333539;33;20135;-86
2023/07/24 08:11:43;;;;;;;1.00;0.93;;;;;;;32.56;60.90;99235.72;4319697;33;20108;-85
2023/07/24 08:14:09;;;;;;;0.28;0.28;;;;;;;32.66;60.91;99233.50;4333554;33;20474;-85
2023/07/24 08:16:34;;;;;;;0.68;0.68;;;;;;;33.02;60.93;99232.31;4323584;33;20123;-85
2023/07/24 08:19:00;;;;;;;8.35;0.45;;;;;;;33.13;60.93;99239.81;4309524;33;20419;-84
2023/07/24 08:21:25;;;;;;;0.70;0.70;;;;;;;33.18;60.94;99231.09;4332974;33;20124;-85
2023/07/24 08:23:51;;;;;;;0.80;0.80;;;;;;;33.28;60.94;99226.91;4293632;33;20175;-85
2023/07/24 08:26:17;;;;;;;0.52;0.43;;;;;;;33.23;60.94;99232.13;4320563;33;20416;-85
2023/07/24 08:28:42;;;;;;;0.43;0.43;;;;;;;33.25;60.95;99237.31;4307164;33;20143;-85
2023/07/24 08:31:08;;;;;;;1.08;0.62;;;;;;;33.44;60.95;99235.69;4319246;33;20497;-85
2023/07/24 08:33:33;;;;;;;0.57;0.57;;;;;;;33.58;60.96;99240.00;4307287;33;20229;-86
2023/07/24 08:36:06;;;;;;;0.45;0.28;;;;;;;33.65;60.95;99242.72;4329363;33;20131;-85
2023/07/24 08:38:32;;;;;;;0.30;0.30;;;;;;;33.51;60.96;99233.78;4332310;33;20088;-86
2023/07/24 08:41:10;;;;;;;0.65;0.65;;;;;;;33.57;60.96;99228.38;4335283;33;20139;-86
2023/07/24 08:43:37;;;;;;;0.22;0.22;;;;;;;33.66;60.97;99225.47;4321787;33;20108;-86
2023/07/24 08:46:03;;;;;;;0.52;0.52;;;;;;;33.78;60.97;99219.19;4335239;33;20126;-86
2023/07/24 08:48:39;;;;;;;3.05;1.55;;;;;;;33.96;60.97;99215.84;4321800;33;20084;-87
2023/07/24 08:51:08;;;;;;;0.32;0.32;;;;;;;34.11;60.98;99218.31;4297491;33;20104;-87
2023/07/24 08:53:38;;;;;;;0.50;0.50;;;;;;;34.25;60.99;99200.97;4322304;33;20118;-87
2023/07/24 08:56:04;;;;;;;1.70;1.27;;;;;;;34.40;61.00;99198.88;4321974;33;20122;-88
2023/07/24 08:58:29;;;;;;;0.65;0.65;;;;;;;34.54;61.01;99198.78;4321825;33;20080;-88
2023/07/24 09:00:56;;;;;;;0.68;0.68;;;;;;;34.61;61.00;99202.28;4335207;33;20075;-88
2023/07/24 09:03:21;;;;;;;0.28;0.28;;;;;;;34.82;61.02;99193.00;4321819;33;20496;-88
2023/07/24 09:05:47;;;;;;;0.40;0.40;;;;;;;35.05;61.03;99183.28;4297480;33;20121;-88
2023/07/24 09:08:13;;;;;;;2.05;0.68;;;;;;;35.17;61.03;99190.66;4309690;33;20400;-88
2023/07/24 09:10:38;;;;;;;0.80;0.80;;;;;;;35.37;61.05;99188.62;4334832;33;20088;-89
2023/07/24 09:13:04;;;;;;;0.77;0.77;;;;;;;35.50;61.06;99191.22;4321752;33;20453;-89
2023/07/24 09:15:39;;;;;;;0.37;0.37;;;;;;;35.48;61.05;99176.22;4321576;33;20119;-89
2023/07/24 09:18:05;;;;;;;3.95;1.08;;;;;;;35.63;61.06;99165.88;4335174;33;20092;-89
2023/07/24 09:20:38;;;;;;;0.73;0.73;;;;;;;35.67;61.07;99169.78;4308957;33;26267;-89
2023/07/24 09:23:03;;;;;;;1.50;0.77;;;;;;;35.76;61.07;99170.31;4334906;33;20099;-89
2023/07/24 09:25:32;;;;;;;0.35;0.30;;;;;;;35.85;61.08;99175.22;4321053;33;25568;-89
2023/07/24 09:27:58;;;;;;;0.70;0.70;;;;;;;36.05;61.08;99168.75;4320936;33;20112;-89
2023/07/24 09:30:24;;;;;;;0.40;0.40;;;;;;;36.15;61.08;99169.00;4309127;33;20335;-89
2023/07/24 09:32:53;;;;;;;0.47;0.47;;;;;;;36.16;61.09;99167.97;4307177;33;20126;-89
2023/07/24 09:35:18;;;;;;;0.57;0.50;;;;;;;36.23;61.10;99166.84;4320208;33;20799;-89
2023/07/24 09:37:44;;;;;;;0.37;0.37;;;;;;;36.49;61.11;99162.13;4308943;33;20163;-90
2023/07/24 09:44:36;;;;;;;;;;;;;;;;;;;;;
2023/07/24 09:47:02;;;;;;;0.17;0.17;;;;;;;36.46;61.10;99149.84;4282520;33;34903;-93
2023/07/24 09:49:28;;;;;;;0.60;0.60;;;;;;;36.37;61.10;99144.97;4308654;33;20489;-92
2023/07/24 09:52:17;;;;;;;3.83;1.08;;;;;;;36.49;61.11;99140.44;4309115;33;20106;-93
2023/07/24 09:55:28;;;;;;;0.47;0.47;;;;;;;36.56;61.11;99143.84;4313852;33;20119;-94
2023/07/24 09:58:14;;;;;;;0.60;0.60;;;;;;;36.66;61.12;99137.84;4307459;33;20122;-93
2023/07/24 10:00:39;;;;;;;0.90;0.90;;;;;;;36.73;61.12;99127.75;4306431;33;20092;-93
2023/07/24 10:03:10;;;;;;;0.22;0.22;;;;;;;36.82;61.13;99129.91;4305717;33;20496;-93
2023/07/24 10:05:38;;;;;;;4.85;1.15;;;;;;;37.02;61.13;99132.28;4324728;33;20104;-93
2023/07/24 10:08:04;;;;;;;1.05;1.00;;;;;;;37.19;61.15;99124.28;4322644;33;20139;-93
2023/07/24 10:10:32;;;;;;;3.10;0.65;;;;;;;37.15;61.14;99120.38;4333589;33;20127;-93
2023/07/24 10:12:57;;;;;;;0.70;0.70;;;;;;;37.10;61.13;99121.06;4325256;33;20091;-90
2023/07/24 10:15:23;;;;;;;0.40;0.40;;;;;;;37.14;61.14;99115.97;4335910;33;20127;-89
2023/07/24 10:17:48;;;;;;;1.98;0.93;;;;;;;37.38;61.15;99111.41;4335665;33;20442;-92
2023/07/24 10:20:16;;;;;;;5.60;1.87;;;;;;;37.48;61.15;99115.16;4323233;33;20106;-91
2023/07/24 10:22:55;;;;;;;0.82;0.82;;;;;;;37.51;61.16;99102.19;4335785;33;20485;-94
2023/07/24 10:25:30;;;;;;;1.00;0.90;;;;;;;37.62;61.16;99104.03;4335921;33;20488;-92
2023/07/24 10:28:26;;;;;;;;;;;;;;;;;;;;;
2023/07/24 10:30:55;;;;;;;0.50;0.50;;;;;;;37.74;61.16;99089.41;4326522;33;35877;-91
2023/07/24 10:33:23;;;;;;;0.55;0.55;;;;;;;37.89;61.18;99079.91;4324087;33;20129;-93
2023/07/24 10:36:35;;;;;;;;;;;;;;;;;;;;;
2023/07/24 10:38:54;;;;;;;2.10;1.37;;;;;;;37.85;61.18;99076.81;4325580;33;20162;-91
2023/07/24 10:41:19;;;;;;;;;;;;;;;37.81;61.17;99080.28;4335923;33;20121;-91
2023/07/24 10:43:49;;;;;;;1.37;1.15;;;;;;;37.83;61.17;99081.66;4335690;33;20301;-91
2023/07/24 10:46:15;;;;;;;0.20;0.20;;;;;;;37.78;61.18;99076.97;4323233;33;20106;-91
2023/07/24 10:48:47;;;;;;;2.53;1.87;;;;;;;37.74;61.17;99070.38;4323478;33;20502;-92
2023/07/24 10:51:15;;;;;;;2.25;0.93;;;;;;;37.86;61.18;99062.19;4321405;33;20163;-91
2023/07/24 10:53:44;;;;;;;2.08;1.50;;;;;;;37.86;61.18;99066.78;4309417;33;20095;-90
2023/07/24 10:56:09;;;;;;;0.93;0.93;;;;;;;37.94;61.18;99059.06;4320764;33;20143;-91
2023/07/24 10:58:35;;;;;;;1.30;1.20;;;;;;;37.91;61.18;99050.59;4332859;33;20843;-92
2023/07/24 11:01:05;;;;;;;0.77;0.75;;;;;;;38.18;61.18;99048.13;4333378;33;20092;-94
2023/07/24 11:04:05;;;;;;;0.60;0.60;;;;;;;38.26;61.20;99040.37;4309074;33;20096;-93
2023/07/24 11:06:40;;;;;;;1.40;1.33;;;;;;;38.28;61.20;99038.22;4320916;33;20171;-93
2023/07/24 11:09:08;;;;;;;0.55;0.55;;;;;;;38.42;61.21;99032.47;4320702;33;20174;-93
2023/07/24 11:11:35;;;;;;;0.55;0.55;;;;;;;38.51;61.21;99030.97;4310505;33;20088;-92
2023/07/24 11:14:01;;;;;;;1.98;1.10;;;;;;;38.39;61.20;99031.91;4320746;33;20107;-91
2023/07/24 11:16:27;;;;;;;1.00;0.95;;;;;;;38.26;61.20;99023.25;4308691;33;20104;-89
2023/07/24 11:18:52;;;;;;;0.57;0.57;;;;;;;38.24;61.19;99023.50;4315741;33;20107;-88
2023/07/24 11:21:18;;;;;;;2.85;1.00;;;;;;;38.37;61.20;99027.78;4318517;33;20095;-88
2023/07/24 11:23:54;;;;;;;3.45;1.30;;;;;;;38.42;61.21;99025.16;4320040;33;20088;-89
2023/07/24 11:26:23;;;;;;;0.50;0.50;;;;;;;38.74;61.23;99009.06;4319346;33;20127;-89
2023/07/24 11:28:50;;;;;;;1.60;1.23;;;;;;;38.91;61.23;99003.59;4319557;33;20125;-89
2023/07/24 11:31:15;;;;;;;0.73;0.73;;;;;;;38.97;61.23;98997.97;4319083;33;20087;-88
2023/07/24 11:33:41;;;;;;;0.85;0.85;;;;;;;38.92;61.23;98984.28;4319085;33;20171;-89
2023/07/24 11:36:06;;;;;;;0.90;0.90;;;;;;;38.92;61.23;98980.75;4307027;33;20135;-89
2023/07/24 11:38:31;;;;;;;0.43;0.43;;;;;;;38.92;61.23;98988.91;4324962;33;20129;-88
2023/07/24 11:40:57;;;;;;;2.80;1.65;;;;;;;38.93;61.23;98961.44;4338727;33;20136;-88
2023/07/24 11:43:23;;;;;;;0.55;0.55;;;;;;;39.06;61.25;98973.88;4310863;33;20965;-88
2023/07/24 11:45:51;;;;;;;0.30;0.30;;;;;;;38.97;61.23;98964.50;4328352;33;20130;-89
2023/07/24 11:48:17;;;;;;;1.37;0.90;;;;;;;39.10;61.24;98961.44;4327568;33;20104;-88
2023/07/24 11:50:50;;;;;;;7.93;2.08;;;;;;;39.08;61.24;98960.03;4316322;33;20495;-89
2023/07/24 11:53:22;;;;;;;1.70;1.58;;;;;;;38.69;61.22;98952.69;4328693;33;20476;-89
2023/07/24 11:55:48;;;;;;;0.52;0.52;;;;;;;38.44;61.21;98955.03;4326647;33;20563;-89
2023/07/24 11:58:14;;;;;;;2.30;0.95;;;;;;;38.65;61.21;98946.12;4306110;33;20115;-90
2023/07/24 12:00:40;;;;;;;0.68;0.68;;;;;;;38.63;61.21;98953.72;4332379;33;20157;-90
2023/07/24 12:03:07;;;;;;;0.82;0.82;;;;;;;38.63;61.22;98948.28;4332090;33;20119;-88
2023/07/24 12:05:42;;;;;;;0.25;0.25;;;;;;;38.61;61.22;98938.69;4307440;33;20130;-90
2023/07/24 12:08:07;;;;;;;2.62;0.90;;;;;;;38.63;61.21;98939.28;4318968;33;20133;-89
2023/07/24 12:10:37;;;;;;;1.37;1.10;;;;;;;38.69;61.22;98930.12;4318863;33;20099;-89
2023/07/24 12:13:03;;;;;;;1.08;0.98;;;;;;;38.58;61.22;98925.59;4332401;33;20429;-89
2023/07/24 12:15:28;;;;;;;0.30;0.30;;;;;;;38.65;61.21;98918.91;4304366;33;20134;-88
2023/07/24 12:17:54;;;;;;;1.35;1.25;;;;;;;38.51;61.21;98917.59;4318888;33;20475;-88
2023/07/24 12:20:19;;;;;;;0.70;0.70;;;;;;;38.56;61.21;98914.13;4318623;33;20128;-87
2023/07/24 12:22:45;;;;;;;1.00;0.80;;;;;;;38.42;61.21;98921.00;4318870;33;20126;-88
2023/07/24 12:25:10;;;;;;;1.17;1.08;;;;;;;38.45;61.21;98925.94;4318950;33;20151;-89
2023/07/24 12:27:37;;;;;;;0.30;0.30;;;;;;;38.43;61.21;98920.75;4319346;33;20125;-91
2023/07/24 12:30:03;;;;;;;0.52;0.52;;;;;;;38.25;61.21;98921.84;4306959;33;20155;-91
2023/07/24 12:32:30;;;;;;;0.30;0.30;;;;;;;38.17;61.20;98910.53;4318828;33;20122;-91
2023/07/24 12:34:56;;;;;;;1.02;0.80;;;;;;;38.16;61.19;98908.91;4332325;33;20103;-92
2023/07/24 12:37:21;;;;;;;0.32;0.32;;;;;;;37.98;61.19;98896.37;4317669;33;20174;-89
2023/07/24 12:39:47;;;;;;;0.98;0.88;;;;;;;38.10;61.20;98899.84;4306848;33;20135;-89
2023/07/24 12:42:12;;;;;;;1.80;1.08;;;;;;;38.05;61.19;98894.31;4318800;33;20403;-89
2023/07/24 12:44:38;;;;;;;1.60;0.93;;;;;;;37.95;61.19;98886.00;4328423;33;20699;-89
2023/07/24 12:47:04;;;;;;;1.17;0.65;;;;;;;37.97;61.19;98889.31;4318607;33;20398;-90
2023/07/24 12:49:29;;;;;;;1.12;0.85;;;;;;;38.09;61.20;98877.28;4332079;33;20104;-89
2023/07/24 12:51:55;;;;;;;0.62;0.62;;;;;;;38.26;61.21;98871.84;4318614;33;20138;-89
2023/07/24 12:54:22;;;;;;;0.57;0.57;;;;;;;38.47;61.21;98872.94;4318219;33;20171;-90
2023/07/24 12:56:47;;;;;;;0.30;0.30;;;;;;;38.54;61.22;98880.91;4318619;33;20091;-90
2023/07/24 12:59:13;;;;;;;0.08;0.08;;;;;;;38.64;61.22;98862.88;4318942;33;20142;-89
2023/07/24 13:01:38;;;;;;;0.43;0.43;;;;;;;38.87;61.23;98856.34;4319716;33;20091;-90
2023/07/24 13:04:04;;;;;;;3.10;1.95;;;;;;;38.90;61.23;98858.56;4319343;33;20199;-89
2023/07/24 13:06:29;;;;;;;1.20;1.10;;;;;;;38.72;61.22;98849.91;4333055;33;20115;-89
2023/07/24 13:08:54;;;;;;;1.27;0.90;;;;;;;38.60;61.22;98836.41;4308102;33;20115;-89
2023/07/24 13:11:21;;;;;;;2.90;2.42;;;;;;;38.38;61.20;98834.50;4343292;33;27084;-89
2023/07/24 13:13:46;;;;;;;1.40;0.95;;;;;;;38.31;61.20;98850.16;4338429;33;20166;-89
2023/07/24 13:16:12;;;;;;;0.62;0.62;;;;;;;38.31;61.20;98850.16;4321884;33;20100;-89
2023/07/24 13:18:37;;;;;;;0.95;0.90;;;;;;;38.27;61.20;98842.75;4321755;33;20128;-89